sensor_id;sensor_type;location;lat;lon;timestamp;temperature;humidity
21895;DHT22;11112;51.270;7.224;2022-07-29T00:00:59;21.40;62.30
21895;DHT22;11112;51.270;7.224;2022-07-29T00:03:26;21.30;61.90
21895;DHT22;11112;51.270;7.224;2022-07-29T00:05:53;21.30;62.00
21895;DHT22;11112;51.270;7.224;2022-07-29T00:08:23;21.30;61.70
21895;DHT22;11112;51.270;7.224;2022-07-29T00:10:51;21.30;61.70
21895;DHT22;11112;51.270;7.224;2022-07-29T00:13:18;21.30;62.20
21895;DHT22;11112;51.270;7.224;2022-07-29T00:15:46;21.30;62.70
21895;DHT22;11112;51.270;7.224;2022-07-29T00:18:14;21.30;63.40
21895;DHT22;11112;51.270;7.224;2022-07-29T00:20:41;21.30;63.30
21895;DHT22;11112;51.270;7.224;2022-07-29T00:23:08;21.30;64.00
21895;DHT22;11112;51.270;7.224;2022-07-29T00:25:35;21.20;64.40
21895;DHT22;11112;51.270;7.224;2022-07-29T00:28:02;21.20;64.40
21895;DHT22;11112;51.270;7.224;2022-07-29T00:30:30;21.20;63.90
21895;DHT22;11112;51.270;7.224;2022-07-29T00:32:58;21.20;64.20
21895;DHT22;11112;51.270;7.224;2022-07-29T00:35:25;21.20;64.20
21895;DHT22;11112;51.270;7.224;2022-07-29T00:38:13;21.20;64.30
21895;DHT22;11112;51.270;7.224;2022-07-29T00:40:41;21.20;64.30
21895;DHT22;11112;51.270;7.224;2022-07-29T00:43:08;21.20;64.40
21895;DHT22;11112;51.270;7.224;2022-07-29T00:45:36;21.20;64.60
21895;DHT22;11112;51.270;7.224;2022-07-29T00:48:05;21.20;64.90
21895;DHT22;11112;51.270;7.224;2022-07-29T00:50:35;21.20;64.50
21895;DHT22;11112;51.270;7.224;2022-07-29T00:53:03;21.20;64.70
21895;DHT22;11112;51.270;7.224;2022-07-29T00:55:36;21.20;65.30
21895;DHT22;11112;51.270;7.224;2022-07-29T00:58:03;21.10;65.70
21895;DHT22;11112;51.270;7.224;2022-07-29T01:00:31;21.20;65.90
21895;DHT22;11112;51.270;7.224;2022-07-29T01:02:58;21.10;65.60
21895;DHT22;11112;51.270;7.224;2022-07-29T01:05:28;21.10;65.50
21895;DHT22;11112;51.270;7.224;2022-07-29T01:07:57;21.10;65.60
21895;DHT22;11112;51.270;7.224;2022-07-29T01:10:26;21.10;65.30
21895;DHT22;11112;51.270;7.224;2022-07-29T01:12:59;21.10;65.40
21895;DHT22;11112;51.270;7.224;2022-07-29T01:15:28;21.10;65.80
21895;DHT22;11112;51.270;7.224;2022-07-29T01:18:02;21.10;65.90
21895;DHT22;11112;51.270;7.224;2022-07-29T01:20:46;21.10;66.00
21895;DHT22;11112;51.270;7.224;2022-07-29T01:23:48;21.10;65.90
21895;DHT22;11112;51.270;7.224;2022-07-29T01:26:38;21.10;66.10
21895;DHT22;11112;51.270;7.224;2022-07-29T01:29:18;21.10;66.30
21895;DHT22;11112;51.270;7.224;2022-07-29T01:31:57;21.00;66.60
21895;DHT22;11112;51.270;7.224;2022-07-29T01:34:34;21.00;66.90
21895;DHT22;11112;51.270;7.224;2022-07-29T01:37:10;21.00;67.00
21895;DHT22;11112;51.270;7.224;2022-07-29T01:39:42;21.00;66.70
21895;DHT22;11112;51.270;7.224;2022-07-29T01:42:15;21.00;66.50
21895;DHT22;11112;51.270;7.224;2022-07-29T01:44:57;21.00;66.40
21895;DHT22;11112;51.270;7.224;2022-07-29T01:47:33;21.00;66.30
21895;DHT22;11112;51.270;7.224;2022-07-29T01:50:07;21.00;66.40
21895;DHT22;11112;51.270;7.224;2022-07-29T01:52:39;21.00;66.50
21895;DHT22;11112;51.270;7.224;2022-07-29T01:55:15;21.00;66.50
21895;DHT22;11112;51.270;7.224;2022-07-29T01:57:46;21.00;66.70
21895;DHT22;11112;51.270;7.224;2022-07-29T02:00:17;20.90;67.00
21895;DHT22;11112;51.270;7.224;2022-07-29T02:02:46;20.90;67.40
21895;DHT22;11112;51.270;7.224;2022-07-29T02:05:15;20.90;67.80
21895;DHT22;11112;51.270;7.224;2022-07-29T02:07:46;20.90;68.10
21895;DHT22;11112;51.270;7.224;2022-07-29T02:10:14;20.90;67.70
21895;DHT22;11112;51.270;7.224;2022-07-29T02:12:45;20.90;67.40
21895;DHT22;11112;51.270;7.224;2022-07-29T02:15:13;20.90;67.20
21895;DHT22;11112;51.270;7.224;2022-07-29T02:17:45;20.90;67.30
21895;DHT22;11112;51.270;7.224;2022-07-29T02:20:16;20.80;67.60
21895;DHT22;11112;51.270;7.224;2022-07-29T02:22:45;20.80;68.20
21895;DHT22;11112;51.270;7.224;2022-07-29T02:25:13;20.80;68.10
21895;DHT22;11112;51.270;7.224;2022-07-29T02:27:43;20.80;68.40
21895;DHT22;11112;51.270;7.224;2022-07-29T02:30:12;20.80;68.80
21895;DHT22;11112;51.270;7.224;2022-07-29T02:32:43;20.80;68.90
21895;DHT22;11112;51.270;7.224;2022-07-29T02:35:12;20.80;68.90
21895;DHT22;11112;51.270;7.224;2022-07-29T02:37:43;20.70;68.60
21895;DHT22;11112;51.270;7.224;2022-07-29T02:40:32;20.70;68.70
21895;DHT22;11112;51.270;7.224;2022-07-29T02:43:00;20.70;69.00
21895;DHT22;11112;51.270;7.224;2022-07-29T02:45:29;20.70;69.40
21895;DHT22;11112;51.270;7.224;2022-07-29T02:48:00;20.70;69.80
21895;DHT22;11112;51.270;7.224;2022-07-29T02:50:34;20.70;70.10
21895;DHT22;11112;51.270;7.224;2022-07-29T02:53:09;20.70;70.40
21895;DHT22;11112;51.270;7.224;2022-07-29T02:55:43;20.70;71.40
21895;DHT22;11112;51.270;7.224;2022-07-29T02:58:18;20.60;70.20
21895;DHT22;11112;51.270;7.224;2022-07-29T03:00:52;20.70;70.40
21895;DHT22;11112;51.270;7.224;2022-07-29T03:03:22;20.70;70.50
21895;DHT22;11112;51.270;7.224;2022-07-29T03:05:53;20.70;70.40
21895;DHT22;11112;51.270;7.224;2022-07-29T03:08:22;20.60;69.90
21895;DHT22;11112;51.270;7.224;2022-07-29T03:10:53;20.60;70.10
21895;DHT22;11112;51.270;7.224;2022-07-29T03:13:21;20.60;70.20
21895;DHT22;11112;51.270;7.224;2022-07-29T03:15:52;20.60;70.20
21895;DHT22;11112;51.270;7.224;2022-07-29T03:18:22;20.60;70.20
21895;DHT22;11112;51.270;7.224;2022-07-29T03:20:50;20.60;70.10
21895;DHT22;11112;51.270;7.224;2022-07-29T03:23:18;20.60;70.00
21895;DHT22;11112;51.270;7.224;2022-07-29T03:25:47;20.60;70.10
21895;DHT22;11112;51.270;7.224;2022-07-29T03:28:14;20.60;70.20
21895;DHT22;11112;51.270;7.224;2022-07-29T03:30:41;20.60;70.50
21895;DHT22;11112;51.270;7.224;2022-07-29T03:33:08;20.60;70.80
21895;DHT22;11112;51.270;7.224;2022-07-29T03:35:37;20.60;71.00
21895;DHT22;11112;51.270;7.224;2022-07-29T03:38:04;20.50;70.80
21895;DHT22;11112;51.270;7.224;2022-07-29T03:40:33;20.50;70.70
21895;DHT22;11112;51.270;7.224;2022-07-29T03:43:03;20.50;70.70
21895;DHT22;11112;51.270;7.224;2022-07-29T03:45:36;20.50;70.50
21895;DHT22;11112;51.270;7.224;2022-07-29T03:48:08;20.50;70.50
21895;DHT22;11112;51.270;7.224;2022-07-29T03:50:39;20.50;70.30
21895;DHT22;11112;51.270;7.224;2022-07-29T03:53:07;20.50;70.00
21895;DHT22;11112;51.270;7.224;2022-07-29T03:55:40;20.50;69.60
21895;DHT22;11112;51.270;7.224;2022-07-29T03:58:08;20.50;69.40
21895;DHT22;11112;51.270;7.224;2022-07-29T04:00:37;20.50;69.10
21895;DHT22;11112;51.270;7.224;2022-07-29T04:03:05;20.50;69.40
21895;DHT22;11112;51.270;7.224;2022-07-29T04:05:33;20.50;68.70
21895;DHT22;11112;51.270;7.224;2022-07-29T04:08:02;20.50;68.80
21895;DHT22;11112;51.270;7.224;2022-07-29T04:10:32;20.40;68.00
21895;DHT22;11112;51.270;7.224;2022-07-29T04:12:59;20.40;68.90
21895;DHT22;11112;51.270;7.224;2022-07-29T04:15:26;20.40;68.00
21895;DHT22;11112;51.270;7.224;2022-07-29T04:17:54;20.50;67.70
21895;DHT22;11112;51.270;7.224;2022-07-29T04:20:21;20.40;67.50
21895;DHT22;11112;51.270;7.224;2022-07-29T04:22:51;20.50;67.60
21895;DHT22;11112;51.270;7.224;2022-07-29T04:25:20;20.50;67.50
21895;DHT22;11112;51.270;7.224;2022-07-29T04:27:47;20.50;67.20
21895;DHT22;11112;51.270;7.224;2022-07-29T04:30:30;20.50;67.40
21895;DHT22;11112;51.270;7.224;2022-07-29T04:32:58;20.50;67.80
21895;DHT22;11112;51.270;7.224;2022-07-29T04:35:26;20.50;67.50
21895;DHT22;11112;51.270;7.224;2022-07-29T04:37:53;20.50;67.00
21895;DHT22;11112;51.270;7.224;2022-07-29T04:40:22;20.50;66.80
21895;DHT22;11112;51.270;7.224;2022-07-29T04:42:49;20.50;66.50
21895;DHT22;11112;51.270;7.224;2022-07-29T04:45:16;20.40;66.60
21895;DHT22;11112;51.270;7.224;2022-07-29T04:47:44;20.40;66.50
21895;DHT22;11112;51.270;7.224;2022-07-29T04:50:11;20.40;66.60
21895;DHT22;11112;51.270;7.224;2022-07-29T04:52:38;20.40;66.50
21895;DHT22;11112;51.270;7.224;2022-07-29T04:55:06;20.40;66.80
21895;DHT22;11112;51.270;7.224;2022-07-29T04:57:35;20.40;66.70
21895;DHT22;11112;51.270;7.224;2022-07-29T05:00:06;20.40;66.40
21895;DHT22;11112;51.270;7.224;2022-07-29T05:02:34;20.30;66.40
21895;DHT22;11112;51.270;7.224;2022-07-29T05:05:01;20.40;66.60
21895;DHT22;11112;51.270;7.224;2022-07-29T05:07:28;20.40;66.50
21895;DHT22;11112;51.270;7.224;2022-07-29T05:09:55;20.40;66.80
21895;DHT22;11112;51.270;7.224;2022-07-29T05:12:23;20.40;67.00
21895;DHT22;11112;51.270;7.224;2022-07-29T05:14:52;20.40;66.70
21895;DHT22;11112;51.270;7.224;2022-07-29T05:17:19;20.40;66.20
21895;DHT22;11112;51.270;7.224;2022-07-29T05:19:47;20.40;66.50
21895;DHT22;11112;51.270;7.224;2022-07-29T05:22:15;20.40;66.60
21895;DHT22;11112;51.270;7.224;2022-07-29T05:24:43;20.40;66.20
21895;DHT22;11112;51.270;7.224;2022-07-29T05:27:10;20.40;66.50
21895;DHT22;11112;51.270;7.224;2022-07-29T05:29:37;20.30;66.30
21895;DHT22;11112;51.270;7.224;2022-07-29T05:32:06;20.30;66.60
21895;DHT22;11112;51.270;7.224;2022-07-29T05:34:33;20.30;66.90
21895;DHT22;11112;51.270;7.224;2022-07-29T05:37:01;20.30;67.60
21895;DHT22;11112;51.270;7.224;2022-07-29T05:39:28;20.30;67.00
21895;DHT22;11112;51.270;7.224;2022-07-29T05:41:55;20.30;67.50
21895;DHT22;11112;51.270;7.224;2022-07-29T05:44:22;20.40;67.40
21895;DHT22;11112;51.270;7.224;2022-07-29T05:46:49;20.40;67.00
21895;DHT22;11112;51.270;7.224;2022-07-29T05:49:20;20.30;66.10
21895;DHT22;11112;51.270;7.224;2022-07-29T05:51:48;20.30;66.70
21895;DHT22;11112;51.270;7.224;2022-07-29T05:54:16;20.30;67.70
21895;DHT22;11112;51.270;7.224;2022-07-29T05:56:46;20.30;67.20
21895;DHT22;11112;51.270;7.224;2022-07-29T05:59:13;20.30;66.80
21895;DHT22;11112;51.270;7.224;2022-07-29T06:01:40;20.30;67.20
21895;DHT22;11112;51.270;7.224;2022-07-29T06:04:07;20.30;67.00
21895;DHT22;11112;51.270;7.224;2022-07-29T06:06:36;20.30;67.10
21895;DHT22;11112;51.270;7.224;2022-07-29T06:09:03;20.30;67.60
21895;DHT22;11112;51.270;7.224;2022-07-29T06:11:30;20.20;67.30
21895;DHT22;11112;51.270;7.224;2022-07-29T06:13:57;20.30;67.70
21895;DHT22;11112;51.270;7.224;2022-07-29T06:16:24;20.30;67.60
21895;DHT22;11112;51.270;7.224;2022-07-29T06:18:51;20.30;67.50
21895;DHT22;11112;51.270;7.224;2022-07-29T06:21:18;20.30;67.40
21895;DHT22;11112;51.270;7.224;2022-07-29T06:23:47;20.30;67.70
21895;DHT22;11112;51.270;7.224;2022-07-29T06:26:14;20.40;67.70
21895;DHT22;11112;51.270;7.224;2022-07-29T06:28:42;20.40;67.70
21895;DHT22;11112;51.270;7.224;2022-07-29T06:31:10;20.40;67.80
21895;DHT22;11112;51.270;7.224;2022-07-29T06:33:37;20.40;67.80
21895;DHT22;11112;51.270;7.224;2022-07-29T06:36:05;20.30;67.80
21895;DHT22;11112;51.270;7.224;2022-07-29T06:38:33;20.40;67.80
21895;DHT22;11112;51.270;7.224;2022-07-29T06:41:01;20.40;68.20
21895;DHT22;11112;51.270;7.224;2022-07-29T06:43:31;20.40;68.60
21895;DHT22;11112;51.270;7.224;2022-07-29T06:46:04;20.30;68.60
21895;DHT22;11112;51.270;7.224;2022-07-29T06:48:33;20.40;68.50
21895;DHT22;11112;51.270;7.224;2022-07-29T06:51:02;20.40;68.70
21895;DHT22;11112;51.270;7.224;2022-07-29T06:53:30;20.50;68.90
21895;DHT22;11112;51.270;7.224;2022-07-29T06:55:58;20.50;68.70
21895;DHT22;11112;51.270;7.224;2022-07-29T06:58:27;20.50;69.50
21895;DHT22;11112;51.270;7.224;2022-07-29T07:01:01;20.60;69.50
21895;DHT22;11112;51.270;7.224;2022-07-29T07:03:30;20.60;69.40
21895;DHT22;11112;51.270;7.224;2022-07-29T07:05:58;20.60;69.10
21895;DHT22;11112;51.270;7.224;2022-07-29T07:08:25;20.70;69.50
21895;DHT22;11112;51.270;7.224;2022-07-29T07:10:53;20.70;69.10
21895;DHT22;11112;51.270;7.224;2022-07-29T07:13:20;20.70;69.40
21895;DHT22;11112;51.270;7.224;2022-07-29T07:15:49;20.80;69.20
21895;DHT22;11112;51.270;7.224;2022-07-29T07:18:17;20.80;69.10
21895;DHT22;11112;51.270;7.224;2022-07-29T07:20:45;21.40;68.40
21895;DHT22;11112;51.270;7.224;2022-07-29T07:23:13;21.60;66.90
21895;DHT22;11112;51.270;7.224;2022-07-29T07:25:40;21.30;66.10
21895;DHT22;11112;51.270;7.224;2022-07-29T07:28:08;21.10;67.90
21895;DHT22;11112;51.270;7.224;2022-07-29T07:30:37;21.00;68.40
21895;DHT22;11112;51.270;7.224;2022-07-29T07:33:06;21.00;68.60
21895;DHT22;11112;51.270;7.224;2022-07-29T07:35:33;21.00;68.30
21895;DHT22;11112;51.270;7.224;2022-07-29T07:38:00;20.90;67.90
21895;DHT22;11112;51.270;7.224;2022-07-29T07:40:27;21.00;68.40
21895;DHT22;11112;51.270;7.224;2022-07-29T07:42:55;20.90;67.60
21895;DHT22;11112;51.270;7.224;2022-07-29T07:45:22;20.80;68.30
21895;DHT22;11112;51.270;7.224;2022-07-29T07:47:49;20.80;68.70
21895;DHT22;11112;51.270;7.224;2022-07-29T07:50:18;20.80;68.20
21895;DHT22;11112;51.270;7.224;2022-07-29T07:52:47;20.90;68.50
21895;DHT22;11112;51.270;7.224;2022-07-29T07:55:15;20.90;69.40
21895;DHT22;11112;51.270;7.224;2022-07-29T07:57:43;20.90;69.40
21895;DHT22;11112;51.270;7.224;2022-07-29T08:00:11;21.00;68.80
21895;DHT22;11112;51.270;7.224;2022-07-29T08:02:39;21.00;69.10
21895;DHT22;11112;51.270;7.224;2022-07-29T08:05:09;21.00;68.80
21895;DHT22;11112;51.270;7.224;2022-07-29T08:07:38;21.00;69.10
21895;DHT22;11112;51.270;7.224;2022-07-29T08:10:06;21.00;69.40
21895;DHT22;11112;51.270;7.224;2022-07-29T08:12:34;21.00;69.30
21895;DHT22;11112;51.270;7.224;2022-07-29T08:15:01;21.00;68.70
21895;DHT22;11112;51.270;7.224;2022-07-29T08:17:28;21.00;69.40
21895;DHT22;11112;51.270;7.224;2022-07-29T08:19:55;21.00;69.00
21895;DHT22;11112;51.270;7.224;2022-07-29T08:22:22;21.00;68.00
21895;DHT22;11112;51.270;7.224;2022-07-29T08:24:51;21.00;68.60
21895;DHT22;11112;51.270;7.224;2022-07-29T08:27:22;20.90;68.20
21895;DHT22;11112;51.270;7.224;2022-07-29T08:29:52;20.90;67.90
21895;DHT22;11112;51.270;7.224;2022-07-29T08:32:21;20.90;68.20
21895;DHT22;11112;51.270;7.224;2022-07-29T08:34:48;20.90;68.60
21895;DHT22;11112;51.270;7.224;2022-07-29T08:37:15;20.90;68.90
21895;DHT22;11112;51.270;7.224;2022-07-29T08:39:42;20.90;68.20
21895;DHT22;11112;51.270;7.224;2022-07-29T08:42:12;21.00;68.80
21895;DHT22;11112;51.270;7.224;2022-07-29T08:44:39;21.00;68.30
21895;DHT22;11112;51.270;7.224;2022-07-29T08:47:06;20.90;67.80
21895;DHT22;11112;51.270;7.224;2022-07-29T08:49:34;20.90;68.30
21895;DHT22;11112;51.270;7.224;2022-07-29T08:52:02;21.00;68.60
21895;DHT22;11112;51.270;7.224;2022-07-29T08:54:29;21.00;68.80
21895;DHT22;11112;51.270;7.224;2022-07-29T08:56:58;21.00;67.90
21895;DHT22;11112;51.270;7.224;2022-07-29T08:59:28;21.10;68.10
21895;DHT22;11112;51.270;7.224;2022-07-29T09:01:57;21.10;68.30
21895;DHT22;11112;51.270;7.224;2022-07-29T09:04:29;21.10;68.40
21895;DHT22;11112;51.270;7.224;2022-07-29T09:07:01;21.10;68.40
21895;DHT22;11112;51.270;7.224;2022-07-29T09:09:31;21.10;68.70
21895;DHT22;11112;51.270;7.224;2022-07-29T09:12:00;21.20;68.90
21895;DHT22;11112;51.270;7.224;2022-07-29T09:14:30;21.20;69.00
21895;DHT22;11112;51.270;7.224;2022-07-29T09:16:58;21.20;69.20
21895;DHT22;11112;51.270;7.224;2022-07-29T09:19:27;21.10;69.80
21895;DHT22;11112;51.270;7.224;2022-07-29T09:22:01;21.10;69.50
21895;DHT22;11112;51.270;7.224;2022-07-29T09:24:38;21.10;70.10
21895;DHT22;11112;51.270;7.224;2022-07-29T09:27:10;21.10;70.40
21895;DHT22;11112;51.270;7.224;2022-07-29T09:29:47;21.10;70.20
21895;DHT22;11112;51.270;7.224;2022-07-29T09:32:15;21.10;69.90
21895;DHT22;11112;51.270;7.224;2022-07-29T09:34:42;21.20;69.90
21895;DHT22;11112;51.270;7.224;2022-07-29T09:37:09;21.10;70.60
21895;DHT22;11112;51.270;7.224;2022-07-29T09:39:39;21.10;71.20
21895;DHT22;11112;51.270;7.224;2022-07-29T09:42:11;21.10;72.00
21895;DHT22;11112;51.270;7.224;2022-07-29T09:44:43;21.10;72.10
21895;DHT22;11112;51.270;7.224;2022-07-29T09:47:14;21.10;73.10
21895;DHT22;11112;51.270;7.224;2022-07-29T09:49:54;21.10;73.80
21895;DHT22;11112;51.270;7.224;2022-07-29T09:52:23;21.00;74.00
21895;DHT22;11112;51.270;7.224;2022-07-29T09:54:51;21.10;74.50
21895;DHT22;11112;51.270;7.224;2022-07-29T09:57:24;21.20;74.60
21895;DHT22;11112;51.270;7.224;2022-07-29T10:00:01;21.20;73.80
21895;DHT22;11112;51.270;7.224;2022-07-29T10:02:32;21.20;73.20
21895;DHT22;11112;51.270;7.224;2022-07-29T10:05:00;21.20;73.20
21895;DHT22;11112;51.270;7.224;2022-07-29T10:07:43;21.30;72.60
21895;DHT22;11112;51.270;7.224;2022-07-29T10:10:19;21.30;72.70
21895;DHT22;11112;51.270;7.224;2022-07-29T10:12:52;21.30;72.40
21895;DHT22;11112;51.270;7.224;2022-07-29T10:15:23;21.40;71.80
21895;DHT22;11112;51.270;7.224;2022-07-29T10:17:52;21.40;71.90
21895;DHT22;11112;51.270;7.224;2022-07-29T10:20:22;21.40;71.40
21895;DHT22;11112;51.270;7.224;2022-07-29T10:22:50;21.40;71.10
21895;DHT22;11112;51.270;7.224;2022-07-29T10:25:19;21.40;70.80
21895;DHT22;11112;51.270;7.224;2022-07-29T10:27:47;21.40;69.70
21895;DHT22;11112;51.270;7.224;2022-07-29T10:30:17;21.40;69.70
21895;DHT22;11112;51.270;7.224;2022-07-29T10:32:58;21.40;70.00
21895;DHT22;11112;51.270;7.224;2022-07-29T10:35:47;21.40;70.70
21895;DHT22;11112;51.270;7.224;2022-07-29T10:38:45;21.40;70.40
21895;DHT22;11112;51.270;7.224;2022-07-29T10:41:37;21.40;70.50
21895;DHT22;11112;51.270;7.224;2022-07-29T10:44:15;21.40;70.50
21895;DHT22;11112;51.270;7.224;2022-07-29T10:46:44;21.40;70.30
21895;DHT22;11112;51.270;7.224;2022-07-29T10:49:14;21.50;70.80
21895;DHT22;11112;51.270;7.224;2022-07-29T10:51:56;21.50;70.60
21895;DHT22;11112;51.270;7.224;2022-07-29T10:54:43;21.50;71.10
21895;DHT22;11112;51.270;7.224;2022-07-29T10:57:21;21.40;71.40
21895;DHT22;11112;51.270;7.224;2022-07-29T11:00:30;21.50;71.90
21895;DHT22;11112;51.270;7.224;2022-07-29T11:02:59;21.50;71.90
21895;DHT22;11112;51.270;7.224;2022-07-29T11:05:28;21.60;71.90
21895;DHT22;11112;51.270;7.224;2022-07-29T11:08:21;21.70;71.80
21895;DHT22;11112;51.270;7.224;2022-07-29T11:10:52;21.60;70.00
21895;DHT22;11112;51.270;7.224;2022-07-29T11:13:52;21.60;70.40
21895;DHT22;11112;51.270;7.224;2022-07-29T11:16:21;21.70;70.80
21895;DHT22;11112;51.270;7.224;2022-07-29T11:19:20;21.70;68.10
21895;DHT22;11112;51.270;7.224;2022-07-29T11:21:48;21.70;68.40
21895;DHT22;11112;51.270;7.224;2022-07-29T11:24:20;21.70;68.90
21895;DHT22;11112;51.270;7.224;2022-07-29T11:27:11;21.70;68.10
21895;DHT22;11112;51.270;7.224;2022-07-29T11:29:50;21.70;67.00
21895;DHT22;11112;51.270;7.224;2022-07-29T11:32:19;21.70;66.80
21895;DHT22;11112;51.270;7.224;2022-07-29T11:34:47;21.80;67.70
21895;DHT22;11112;51.270;7.224;2022-07-29T11:37:20;21.80;66.40
21895;DHT22;11112;51.270;7.224;2022-07-29T11:40:16;21.80;66.80
21895;DHT22;11112;51.270;7.224;2022-07-29T11:42:47;21.80;67.30
21895;DHT22;11112;51.270;7.224;2022-07-29T11:45:22;21.90;68.00
21895;DHT22;11112;51.270;7.224;2022-07-29T11:47:56;21.90;67.00
21895;DHT22;11112;51.270;7.224;2022-07-29T11:50:33;21.90;67.30
21895;DHT22;11112;51.270;7.224;2022-07-29T11:53:03;21.90;67.80
21895;DHT22;11112;51.270;7.224;2022-07-29T11:55:38;21.90;67.30
21895;DHT22;11112;51.270;7.224;2022-07-29T11:58:06;21.90;67.60
21895;DHT22;11112;51.270;7.224;2022-07-29T12:00:38;22.00;68.00
21895;DHT22;11112;51.270;7.224;2022-07-29T12:03:07;22.00;68.50
21895;DHT22;11112;51.270;7.224;2022-07-29T12:05:39;21.90;68.80
21895;DHT22;11112;51.270;7.224;2022-07-29T12:08:10;22.00;69.50
21895;DHT22;11112;51.270;7.224;2022-07-29T12:10:39;22.00;70.20
21895;DHT22;11112;51.270;7.224;2022-07-29T12:13:07;22.10;71.10
21895;DHT22;11112;51.270;7.224;2022-07-29T12:15:37;22.10;70.20
21895;DHT22;11112;51.270;7.224;2022-07-29T12:18:15;22.10;70.30
21895;DHT22;11112;51.270;7.224;2022-07-29T12:20:44;22.10;70.70
21895;DHT22;11112;51.270;7.224;2022-07-29T12:23:12;22.20;70.20
21895;DHT22;11112;51.270;7.224;2022-07-29T12:25:40;22.10;70.10
21895;DHT22;11112;51.270;7.224;2022-07-29T12:28:11;22.10;70.10
21895;DHT22;11112;51.270;7.224;2022-07-29T12:30:45;22.10;69.50
21895;DHT22;11112;51.270;7.224;2022-07-29T12:33:19;22.10;69.40
21895;DHT22;11112;51.270;7.224;2022-07-29T12:35:50;22.20;69.30
21895;DHT22;11112;51.270;7.224;2022-07-29T12:38:19;22.20;69.50
21895;DHT22;11112;51.270;7.224;2022-07-29T12:40:47;22.20;69.20
21895;DHT22;11112;51.270;7.224;2022-07-29T12:43:17;22.20;69.50
21895;DHT22;11112;51.270;7.224;2022-07-29T12:45:48;22.20;69.80
21895;DHT22;11112;51.270;7.224;2022-07-29T12:48:17;22.20;69.90
21895;DHT22;11112;51.270;7.224;2022-07-29T12:50:56;22.30;70.10
21895;DHT22;11112;51.270;7.224;2022-07-29T12:53:24;22.30;69.80
21895;DHT22;11112;51.270;7.224;2022-07-29T12:55:53;22.20;69.90
21895;DHT22;11112;51.270;7.224;2022-07-29T12:58:29;22.30;70.20
21895;DHT22;11112;51.270;7.224;2022-07-29T13:01:08;22.40;70.20
21895;DHT22;11112;51.270;7.224;2022-07-29T13:03:50;22.40;70.30
21895;DHT22;11112;51.270;7.224;2022-07-29T13:06:29;22.40;69.50
21895;DHT22;11112;51.270;7.224;2022-07-29T13:08:59;22.40;69.50
21895;DHT22;11112;51.270;7.224;2022-07-29T13:11:30;22.30;69.50
21895;DHT22;11112;51.270;7.224;2022-07-29T13:13:58;22.30;70.80
21895;DHT22;11112;51.270;7.224;2022-07-29T13:16:27;22.30;69.70
21895;DHT22;11112;51.270;7.224;2022-07-29T13:19:04;22.30;69.80
21895;DHT22;11112;51.270;7.224;2022-07-29T13:21:33;22.40;69.70
21895;DHT22;11112;51.270;7.224;2022-07-29T13:24:00;22.40;69.10
21895;DHT22;11112;51.270;7.224;2022-07-29T13:26:28;22.40;68.80
21895;DHT22;11112;51.270;7.224;2022-07-29T13:28:55;22.40;68.30
21895;DHT22;11112;51.270;7.224;2022-07-29T13:31:23;22.40;68.20
21895;DHT22;11112;51.270;7.224;2022-07-29T13:33:52;22.40;68.10
21895;DHT22;11112;51.270;7.224;2022-07-29T13:36:21;22.40;68.30
21895;DHT22;11112;51.270;7.224;2022-07-29T13:38:48;22.50;66.80
21895;DHT22;11112;51.270;7.224;2022-07-29T13:41:15;22.50;67.00
21895;DHT22;11112;51.270;7.224;2022-07-29T13:43:42;22.50;66.60
21895;DHT22;11112;51.270;7.224;2022-07-29T13:46:09;22.50;66.60
21895;DHT22;11112;51.270;7.224;2022-07-29T13:48:36;22.60;67.20
21895;DHT22;11112;51.270;7.224;2022-07-29T13:51:05;22.60;66.90
21895;DHT22;11112;51.270;7.224;2022-07-29T13:53:32;22.60;66.90
21895;DHT22;11112;51.270;7.224;2022-07-29T13:55:59;22.60;67.20
21895;DHT22;11112;51.270;7.224;2022-07-29T13:58:26;22.70;66.90
21895;DHT22;11112;51.270;7.224;2022-07-29T14:00:53;22.70;67.00
21895;DHT22;11112;51.270;7.224;2022-07-29T14:03:22;22.70;67.10
21895;DHT22;11112;51.270;7.224;2022-07-29T14:05:50;22.70;66.60
21895;DHT22;11112;51.270;7.224;2022-07-29T14:08:18;22.70;67.10
21895;DHT22;11112;51.270;7.224;2022-07-29T14:10:45;22.80;66.10
21895;DHT22;11112;51.270;7.224;2022-07-29T14:13:12;22.80;65.90
21895;DHT22;11112;51.270;7.224;2022-07-29T14:15:39;22.80;66.20
21895;DHT22;11112;51.270;7.224;2022-07-29T14:18:07;22.80;66.70
21895;DHT22;11112;51.270;7.224;2022-07-29T14:20:36;22.80;66.90
21895;DHT22;11112;51.270;7.224;2022-07-29T14:23:03;22.90;67.00
21895;DHT22;11112;51.270;7.224;2022-07-29T14:25:32;22.80;65.70
21895;DHT22;11112;51.270;7.224;2022-07-29T14:27:59;22.80;66.20
21895;DHT22;11112;51.270;7.224;2022-07-29T14:30:26;22.80;66.50
21895;DHT22;11112;51.270;7.224;2022-07-29T14:32:53;22.70;66.30
21895;DHT22;11112;51.270;7.224;2022-07-29T14:35:20;22.80;67.20
21895;DHT22;11112;51.270;7.224;2022-07-29T14:37:47;22.70;66.10
21895;DHT22;11112;51.270;7.224;2022-07-29T14:40:14;22.70;66.40
21895;DHT22;11112;51.270;7.224;2022-07-29T14:42:43;22.70;66.80
21895;DHT22;11112;51.270;7.224;2022-07-29T14:45:10;22.80;67.10
21895;DHT22;11112;51.270;7.224;2022-07-29T14:47:41;22.80;67.30
21895;DHT22;11112;51.270;7.224;2022-07-29T14:50:09;22.80;66.80
21895;DHT22;11112;51.270;7.224;2022-07-29T14:52:36;22.70;67.00
21895;DHT22;11112;51.270;7.224;2022-07-29T14:55:03;22.70;67.00
21895;DHT22;11112;51.270;7.224;2022-07-29T14:57:31;22.70;67.60
21895;DHT22;11112;51.270;7.224;2022-07-29T15:00:00;22.70;67.60
21895;DHT22;11112;51.270;7.224;2022-07-29T15:02:30;22.80;67.60
21895;DHT22;11112;51.270;7.224;2022-07-29T15:04:57;22.70;67.70
21895;DHT22;11112;51.270;7.224;2022-07-29T15:07:25;22.70;67.30
21895;DHT22;11112;51.270;7.224;2022-07-29T15:09:52;22.70;67.50
21895;DHT22;11112;51.270;7.224;2022-07-29T15:12:19;22.70;67.90
21895;DHT22;11112;51.270;7.224;2022-07-29T15:14:46;22.70;67.90
21895;DHT22;11112;51.270;7.224;2022-07-29T15:17:15;22.80;68.00
21895;DHT22;11112;51.270;7.224;2022-07-29T15:19:42;22.70;68.10
21895;DHT22;11112;51.270;7.224;2022-07-29T15:22:09;22.80;68.60
21895;DHT22;11112;51.270;7.224;2022-07-29T15:24:36;22.80;68.80
21895;DHT22;11112;51.270;7.224;2022-07-29T15:27:04;22.80;68.50
21895;DHT22;11112;51.270;7.224;2022-07-29T15:29:31;22.80;69.00
21895;DHT22;11112;51.270;7.224;2022-07-29T15:31:58;22.80;69.40
21895;DHT22;11112;51.270;7.224;2022-07-29T15:34:27;22.90;69.30
21895;DHT22;11112;51.270;7.224;2022-07-29T15:36:54;22.90;69.20
21895;DHT22;11112;51.270;7.224;2022-07-29T15:39:21;22.90;68.50
21895;DHT22;11112;51.270;7.224;2022-07-29T15:41:49;22.90;68.50
21895;DHT22;11112;51.270;7.224;2022-07-29T15:44:17;22.90;68.40
21895;DHT22;11112;51.270;7.224;2022-07-29T15:46:44;22.90;68.50
21895;DHT22;11112;51.270;7.224;2022-07-29T15:49:32;22.90;68.50